Flight Track Log - Related Links

Times and Time Zones

All times are in EDT time to prevent confusion due to time zone crossing. See the ASQ4577 flight status page for this flight to view local times or setup timezone preferences in your user account.

Time Position Orientation Groundspeed Altitude Reporting Facility
EDT Latitude Longitude Course Direction KTS MPH feet Rate Location/Type
Mon 03:34:08 PM 39.9167 -104.6667 72° East 203 234 7,000  Level Denver TRACON
Mon 03:35:08 PM 39.9833 -104.6167 30° Northeast 250 288 7,900 1,128 Climbing Denver TRACON
Mon 03:36:00 PM 39.8667 -104.2018 90° East  Level FlightAware Approximate
Mon 03:36:05 PM 40.0350 -104.5678 36° Northeast 266 306 9,200  Level Denver Center
Mon 03:37:00 PM 39.8667 -104.0464 90° East  Level FlightAware Approximate
Mon 03:37:07 PM 40.0672 -104.4764 65° Northeast 305 351 10,200  Level Denver Center
Mon 03:38:00 PM 39.8667 -103.8910 90° East  Level FlightAware Approximate
Mon 03:38:09 PM 40.0689 -104.3483 89° East 328 377 11,200  Level Denver Center
Mon 03:39:00 PM 39.8820 -103.7388 72° East  Level FlightAware Approximate
Mon 03:39:11 PM 40.0525 -104.2289 100° East 332 382 12,200  Level Denver Center
Mon 03:40:12 PM 40.0197 -104.1297 113° Southeast 349 402 13,200 1,220 Climbing Denver Center
Mon 03:41:14 PM 39.9794 -104.0139 114° Southeast 350 403 14,700 1,548 Climbing Denver Center
Mon 03:42:16 PM 39.9314 -103.8744 114° Southeast 343 395 16,400 1,452 Climbing Denver Center
Mon 03:43:18 PM 39.8936 -103.7614 114° Southeast 342 394 17,700 1,113 Climbing Denver Center
Mon 03:44:20 PM 39.8925 -103.6575 91° East 349 402 18,700 1,258 Climbing Denver Center
Mon 03:45:22 PM 39.9108 -103.4997 81° East 367 422 20,300 1,403 Climbing Denver Center
Mon 03:46:24 PM 39.9253 -103.3681 82° East 369 425 21,600 1,210 Climbing Denver Center
Mon 03:47:26 PM 39.9408 -103.2336 81° East 374 430 22,800 1,161 Climbing Denver Center
Mon 03:48:28 PM 39.9594 -103.0678 82° East 387 445 24,000 581 Climbing Denver Center
Mon 03:49:30 PM 39.9750 -102.9203 82° East 407 468 24,000 339 Level Denver Center
Mon 03:50:32 PM 39.9911 -102.7636 82° East 433 498 24,700 1,073 Climbing Denver Center
Mon 03:51:33 PM 40.0089 -102.5983 82° East 429 494 26,200 1,415 Climbing Denver Center
Mon 03:52:35 PM 40.0236 -102.4575 82° East 414 476 27,600 1,258 Climbing Denver Center
Mon 03:53:37 PM 40.0414 -102.2936 82° East 409 471 28,800 1,065 Climbing Denver Center
Mon 03:54:39 PM 40.0547 -102.1528 83° East 410 472 29,800 919 Climbing Denver Center
Mon 03:55:41 PM 40.0700 -102.0106 82° East 414 476 30,700 1,016 Climbing Denver Center
Mon 03:56:43 PM 40.0867 -101.8436 83° East 415 478 31,900 1,016 Climbing Denver Center
Mon 03:57:45 PM 40.1000 -101.7003 83° East 416 479 32,800 968 Climbing Denver Center
Mon 03:58:47 PM 40.1164 -101.5314 83° East 421 484 33,900 968 Climbing Denver Center
Mon 03:59:49 PM 40.1303 -101.3889 83° East 417 480 34,800 532 Climbing Denver Center
Mon 04:00:51 PM 40.1625 -101.2233 76° East 424 488 35,000 97 Climbing Denver Center
Mon 04:01:53 PM 40.1939 -101.0761 74° East 438 504 35,000  Level Denver Center
Mon 04:02:55 PM 40.2314 -100.8953 75° East 459 528 35,000  Level Denver Center
Mon 04:03:57 PM 40.2642 -100.7344 75° East 475 547 35,000  Level Denver Center
Mon 04:04:59 PM 40.3031 -100.5447 75° East 483 556 35,000  Level Denver Center
Mon 04:06:01 PM 40.3361 -100.3814 75° East 486 559 35,000  Level Denver Center
Mon 04:07:02 PM 40.3744 -100.1908 75° East 486 559 35,000  Level Denver Center
Mon 04:08:04 PM 40.4078 -100.0272 75° East 486 559 35,000  Level Denver Center
Mon 04:09:06 PM 40.4414 -99.8522 76° East 486 559 35,000  Level Denver Center
Mon 04:10:08 PM 40.4742 -99.6828 76° East 481 554 35,000  Level Denver Center
Mon 04:11:10 PM 40.5075 -99.5119 76° East 482 555 35,000  Level Denver Center
Mon 04:12:12 PM 40.5464 -99.3089 76° East 479 551 35,000  Level Denver Center
Mon 04:13:14 PM 40.5792 -99.1392 76° East 480 552 35,000  Level Denver Center
Mon 04:14:16 PM 40.6108 -98.9708 76° East 479 551 35,000  Level Denver Center
Mon 04:15:17 PM 40.6419 -98.8019 76° East 478 550 35,000  Level Denver Center
Mon 04:16:19 PM 40.6731 -98.6336 76° East 477 549 35,000  Level Denver Center
Mon 04:17:21 PM 40.7108 -98.4317 76° East 478 550 35,000  Level Denver Center
Mon 04:18:36 PM 40.7461 -98.2292 77° East 477 549 35,000  Level Minneapolis Center
Mon 04:19:38 PM 40.7764 -98.0614 77° East 475 547 35,000  Level Minneapolis Center
Mon 04:20:39 PM 40.8058 -97.8933 77° East 474 545 35,000  Level Minneapolis Center
Mon 04:21:41 PM 40.8364 -97.7242 77° East 474 545 35,000  Level Minneapolis Center
Mon 04:22:43 PM 40.8667 -97.5553 77° East 475 547 35,000  Level Minneapolis Center
Mon 04:23:45 PM 40.9003 -97.3514 78° East 475 547 35,000  Level Minneapolis Center
Mon 04:24:47 PM 40.9258 -97.2100 77° East 474 545 35,000  Level Minneapolis Center
Mon 04:25:49 PM 40.9594 -97.0058 78° East 473 544 35,000  Level Minneapolis Center
Mon 04:26:51 PM 40.9883 -96.8375 77° East 473 544 35,000  Level Minneapolis Center
Mon 04:27:53 PM 41.0169 -96.6672 77° East 473 544 35,000  Level Minneapolis Center
Mon 04:28:55 PM 41.0442 -96.4997 78° East 470 541 35,000  Level Minneapolis Center
Mon 04:29:57 PM 41.0719 -96.3311 78° East 472 543 35,000  Level Minneapolis Center
Mon 04:30:59 PM 41.1050 -96.1292 78° East 474 545 35,000  Level Minneapolis Center
Mon 04:32:02 PM 41.1306 -95.9592 79° East 476 548 35,000  Level Minneapolis Center
Mon 04:33:04 PM 41.1594 -95.7869 77° East 478 550 35,000  Level Minneapolis Center
Mon 04:34:06 PM 41.1828 -95.6214 79° East 475 547 35,000  Level Minneapolis Center
Mon 04:35:08 PM 41.2075 -95.4503 79° East 475 547 35,000  Level Minneapolis Center
Mon 04:36:10 PM 41.2367 -95.2439 79° East 476 548 35,000  Level Minneapolis Center
Mon 04:37:12 PM 41.2608 -95.0719 79° East 476 548 35,000  Level Minneapolis Center
Mon 04:38:14 PM 41.2844 -94.9003 80° East 475 547 35,000  Level Minneapolis Center
Mon 04:39:16 PM 41.3081 -94.7286 80° East 473 544 35,000  Level Minneapolis Center
Mon 04:40:18 PM 41.3303 -94.5569 80° East 473 544 35,000  Level Minneapolis Center
Mon 04:41:20 PM 41.3583 -94.3500 80° East 473 544 35,000  Level Minneapolis Center
Mon 04:42:22 PM 41.3786 -94.1989 80° East 475 547 35,000  Level Minneapolis Center
Mon 04:43:24 PM 41.4006 -94.0264 80° East 476 548 35,000  Level Minneapolis Center
Mon 04:44:26 PM 41.4281 -93.8181 80° East 478 550 35,000  Level Minneapolis Center
Mon 04:45:28 PM 41.4506 -93.6444 80° East 478 550 35,000  Level Minneapolis Center
Mon 04:46:30 PM 41.4728 -93.4692 80° East 480 552 35,000  Level Minneapolis Center
Mon 04:47:33 PM 41.4947 -93.2942 80° East 482 555 35,000  Level Minneapolis Center
Mon 04:48:35 PM 41.5161 -93.1200 81° East 480 552 35,000  Level Minneapolis Center
Mon 04:49:37 PM 41.5414 -92.9094 81° East 480 552 35,000  Level Minneapolis Center
Mon 04:50:39 PM 41.5617 -92.7331 81° East 483 556 35,000  Level Minneapolis Center
Mon 04:51:41 PM 41.5825 -92.5569 81° East 482 555 35,000  Level Minneapolis Center
Mon 04:52:11 PM 41.5917 -92.4797 81° East 485 558 35,000  Level Chicago Center
Mon 04:53:13 PM 41.6117 -92.3058 81° East 480 552 35,000  Level Chicago Center
Mon 04:54:15 PM 41.6358 -92.0942 81° East 486 559 35,000  Level Chicago Center
Mon 04:55:17 PM 41.6550 -91.9183 82° East 485 558 35,000  Level Chicago Center
Mon 04:56:19 PM 41.6750 -91.7428 81° East 486 559 35,000  Level Chicago Center
Mon 04:57:22 PM 41.6936 -91.5669 82° East 483 556 35,000  Level Chicago Center
Mon 04:58:24 PM 41.7167 -91.3561 82° East 485 558 35,000  Level Chicago Center
Mon 04:59:26 PM 41.7347 -91.1775 82° East 489 563 35,000  Level Chicago Center
Mon 05:00:28 PM 41.7531 -91.0014 82° East 486 559 35,000  Level Chicago Center
Mon 05:01:30 PM 41.7711 -90.8228 82° East 489 563 35,000  Level Chicago Center
Mon 05:02:32 PM 41.7914 -90.6083 83° East 488 562 35,000  Level Chicago Center
Mon 05:03:34 PM 41.8089 -90.4328 82° East 485 558 35,000  Level Chicago Center
Mon 05:04:36 PM 41.8269 -90.2531 82° East 490 564 35,000  Level Chicago Center
Mon 05:05:38 PM 41.8439 -90.0733 83° East 492 566 35,000  Level Chicago Center
Mon 05:06:40 PM 41.8625 -89.8661 83° East 490 564 35,000  Level Chicago Center
Mon 05:07:43 PM 41.8794 -89.6853 83° East 490 564 35,000  Level Chicago Center
Mon 05:08:45 PM 41.8967 -89.5017 83° East 496 571 35,000  Level Chicago Center
Mon 05:09:47 PM 41.9117 -89.3192 84° East 497 572 35,000  Level Chicago Center
Mon 05:10:49 PM 41.9275 -89.1367 84° East 495 570 35,000  Level Chicago Center
Mon 05:11:00 PM 41.9258 -89.1251 84° East  Level FlightAware Approximate
Mon 05:11:51 PM 41.9464 -88.9164 83° East 497 572 35,000  Level Chicago Center
Mon 05:12:53 PM 41.9614 -88.7328 84° East 498 573 35,000  Level Chicago Center
Mon 05:13:55 PM 41.9761 -88.5461 84° East 502 578 35,000  Level Chicago Center
Mon 05:14:57 PM 41.9906 -88.3606 84° East 501 577 35,000  Level Chicago Center
Mon 05:15:59 PM 42.0044 -88.1742 84° East 501 577 35,000  Level Chicago Center
Mon 05:17:01 PM 42.0217 -87.9608 84° East 502 578 35,000  Level Chicago Center
Mon 05:18:04 PM 42.0358 -87.7650 84° East 499 574 35,000  Level Chicago Center
Mon 05:19:06 PM 42.0489 -87.5822 84° East 494 568 35,000  Level Chicago Center
Mon 05:20:08 PM 42.0617 -87.3994 85° East 492 566 35,000  Level Chicago Center
Mon 05:21:10 PM 42.0750 -87.2150 84° East 497 572 35,000  Level Chicago Center
Mon 05:22:12 PM 42.0867 -87.0306 85° East 496 571 35,000  Level Chicago Center
Mon 05:23:14 PM 42.1019 -86.8108 85° East 494 568 35,000  Level Chicago Center
Mon 05:24:16 PM 42.1117 -86.6483 85° East 473 544 35,000  Level Chicago Center
Mon 05:25:18 PM 42.1233 -86.4778 85° East 461 531 35,000  Level Chicago Center
Mon 05:26:20 PM 42.1331 -86.3100 85° East 451 519 35,000  Level Chicago Center
Mon 05:27:22 PM 42.1428 -86.1386 86° East 458 527 35,000 -242 Level Chicago Center
Mon 05:28:24 PM 42.1389 -85.9403 91° East 470 541 34,500 -720 Descending Chicago Center
Mon 05:29:27 PM 42.1347 -85.7631 92° East 477 549 33,500 -912 Descending Chicago Center
Mon 05:30:29 PM 42.1289 -85.5775 92° East 495 570 32,600 -968 Descending Chicago Center
Mon 05:31:31 PM 42.1214 -85.3528 93° East 503 579 31,500 -968 Descending Chicago Center
Mon 05:32:33 PM 42.1172 -85.1628 92° East 512 589 30,600 -919 Descending Chicago Center
Mon 05:33:35 PM 42.1106 -84.9669 93° East 524 603 29,600 -774 Descending Chicago Center
Mon 05:34:37 PM 42.1039 -84.7731 93° East 522 601 29,000 -290 Descending Chicago Center
Mon 05:35:39 PM 42.0969 -84.5806 93° East 519 597 29,000  Level Chicago Center
Mon 05:36:41 PM 42.0886 -84.3464 93° East 522 601 29,000  Level Chicago Center
Mon 05:37:33 PM 42.0786 -84.1839 95° East 521 600 29,000 -161 Level Cleveland Center
Mon 05:38:33 PM 42.0700 -83.9847 93° East 521 600 28,700 -1,150 Descending Cleveland Center
Mon 05:39:33 PM 42.0608 -83.7939 94° East 521 600 26,700 -2,050 Descending Cleveland Center
Mon 05:40:33 PM 42.0517 -83.6006 94° East 521 600 24,600 -1,400 Descending Cleveland Center
Mon 05:41:33 PM 42.0419 -83.4072 94° East 521 600 23,900 -950 Descending Cleveland Center
Mon 05:42:33 PM 42.0233 -83.2219 98° East 513 590 22,700 -1,250 Descending Cleveland Center
Mon 05:43:33 PM 42.0047 -83.0339 98° East 513 590 21,400 -1,550 Descending Cleveland Center
Mon 05:44:33 PM 41.9875 -82.8544 97° East 502 578 19,600 -2,050 Descending Cleveland Center
Mon 05:45:33 PM 41.9719 -82.6833 97° East 480 552 17,300 -2,514 Descending Cleveland Center
Mon 05:46:18 PM 41.9575 -82.5628 99° East 440 506 15,200 -2,500 Descending Cleveland Center
Mon 05:46:33 PM 41.9497 -82.5264 106° East 458 527 14,800 -2,509 Descending Cleveland Center
Mon 05:47:13 PM 41.9219 -82.4361 112° Southeast 415 478 12,900 -2,700 Descending Cleveland Center
Mon 05:47:33 PM 41.9061 -82.3828 112° Southeast 430 495 12,100 -2,361 Descending Cleveland Center
Mon 05:48:14 PM 41.8764 -82.2897 113° Southeast 395 455 10,500 -2,000 Descending Cleveland Center
Mon 05:48:33 PM 41.8622 -82.2503 116° Southeast 407 468 10,100 -492 Descending Cleveland Center
Mon 05:49:15 PM 41.8283 -82.1547 115° Southeast 398 458 10,000 -100 Descending Cleveland Center
Mon 05:49:33 PM 41.8078 -82.1264 134° Southeast 389 448 10,000  Level Cleveland Center
Mon 05:50:16 PM 41.7397 -82.0719 149° Southeast 394 453 10,000  Level Cleveland Center
Mon 05:50:33 PM 41.7233 -82.0603 152° Southeast 380 437 10,000 -400 Level Cleveland Center
Mon 05:51:16 PM 41.6572 -82.0144 153° Southeast 306 352 9,600 -800 Descending Cleveland Center
Mon 05:51:33 PM 41.6364 -81.9972 148° Southeast 353 406 9,200 -1,672 Descending Cleveland Center
Mon 05:52:17 PM 41.5806 -81.9628 155° Southeast 298 343 7,900 -1,700 Descending Cleveland Center
Mon 05:52:33 PM 41.5619 -81.9483 150° Southeast 313 360 7,500 -885 Descending Cleveland Center
Mon 05:53:18 PM 41.5103 -81.9197 157° South 283 326 7,000 -500 Descending Cleveland Center
Mon 05:53:33 PM 41.4894 -81.9081 157° South 293 337 7,000 -787 Level Cleveland Center
Mon 05:54:19 PM 41.4392 -81.9458 209° Southwest 269 310 6,200 -1,458 Descending Cleveland Center
Mon 05:55:20 PM 41.3881 -82.0194 227° Southwest 267 307 4,400 -1,525 Descending Cleveland Center
Mon 05:56:21 PM 41.3364 -81.9881 155° Southeast 234 269 3,100 -1,279 Descending Cleveland Center

Login

Don't have an account? Register now (free) for customized features, flight alerts, and more!